Time;durP1;ratioP1;P1;durP2;ratioP2;P2;SDS_P1;SDS_P2;PMS_P1;PMS_P2;Temp;Humidity;BMP_temperature;BMP_pressure;BME280_temperature;BME280_humidity;BME280_pressure;Samples;Min_cycle;Max_cycle;Signal;HPM_P1;HPM_P2
2022/07/19 00:00:25;;;;;;;2.20;2.08;;;;;;;19.29;64.13;101205.72;4985629;28;20018;-67
2022/07/19 00:02:51;;;;;;;4.72;2.50;;;;;;;19.18;64.61;101190.91;4949774;28;20122;-67
2022/07/19 00:05:17;;;;;;;2.92;1.92;;;;;;;19.10;64.75;101186.44;4952613;28;20902;-69
2022/07/19 00:07:42;;;;;;;3.75;2.10;;;;;;;19.05;65.05;101189.69;4952676;28;20030;-67
2022/07/19 00:10:09;;;;;;;3.58;2.13;;;;;;;18.97;65.48;101181.69;4933747;28;20134;-66
2022/07/19 00:12:35;;;;;;;4.00;2.10;;;;;;;19.03;65.35;101177.47;4986537;28;20472;-66
2022/07/19 00:15:00;;;;;;;2.33;2.13;;;;;;;18.88;65.61;101193.50;4967798;28;20435;-67
2022/07/19 00:17:26;;;;;;;6.15;2.20;;;;;;;18.73;66.10;101184.53;4972818;28;20629;-69
2022/07/19 00:19:51;;;;;;;4.57;2.00;;;;;;;18.64;66.25;101186.47;4970182;28;20034;-64
2022/07/19 00:22:17;;;;;;;2.50;2.30;;;;;;;18.63;66.47;101195.53;4990805;28;20673;-67
2022/07/19 00:24:42;;;;;;;1.92;1.83;;;;;;;18.64;66.53;101191.81;4981059;28;20030;-68
2022/07/19 00:27:08;;;;;;;3.67;1.77;;;;;;;18.69;65.99;101189.44;4949663;28;20091;-70
2022/07/19 00:29:33;;;;;;;2.28;1.90;;;;;;;18.64;66.45;101192.69;4954380;28;20014;-67
2022/07/19 00:31:58;;;;;;;2.67;1.98;;;;;;;18.65;66.54;101188.97;4957173;28;20064;-67
2022/07/19 00:34:24;;;;;;;2.90;2.10;;;;;;;18.68;66.34;101180.59;4934394;28;20890;-66
2022/07/19 00:36:49;;;;;;;2.20;1.90;;;;;;;18.61;66.48;101186.81;4949288;28;20013;-69
2022/07/19 00:39:14;;;;;;;1.90;1.80;;;;;;;18.61;66.55;101186.81;4969483;28;20030;-66
2022/07/19 00:41:41;;;;;;;2.03;1.65;;;;;;;18.57;67.00;101190.88;4950094;28;20018;-67
2022/07/19 00:44:07;;;;;;;2.83;2.15;;;;;;;18.36;67.62;101179.78;4971614;28;21201;-66
2022/07/19 00:46:33;;;;;;;2.25;1.98;;;;;;;18.40;67.40;101182.94;4969080;28;20026;-64
2022/07/19 00:48:58;;;;;;;2.53;1.95;;;;;;;18.33;67.62;101179.31;4952938;28;20487;-66
2022/07/19 00:51:23;;;;;;;2.55;2.00;;;;;;;18.30;68.01;101185.03;4950797;28;20010;-66
2022/07/19 00:53:49;;;;;;;2.22;2.13;;;;;;;18.29;67.95;101183.34;4950316;28;20033;-67
2022/07/19 00:56:16;;;;;;;5.25;2.00;;;;;;;18.27;68.11;101174.66;4952166;28;20596;-66
2022/07/19 00:58:42;;;;;;;2.05;1.80;;;;;;;18.23;68.07;101170.66;4958831;28;20042;-67
2022/07/19 01:01:08;;;;;;;2.38;1.90;;;;;;;18.21;68.02;101170.03;4954280;28;20606;-67
2022/07/19 01:03:38;;;;;;;2.22;1.95;;;;;;;18.17;68.13;101174.88;4982365;28;20432;-64
2022/07/19 01:06:04;;;;;;;2.17;2.00;;;;;;;18.14;68.28;101175.25;4956554;28;20054;-67
2022/07/19 01:08:33;;;;;;;2.17;2.08;;;;;;;18.17;68.12;101167.66;4948453;28;20110;-66
2022/07/19 01:10:58;;;;;;;2.03;1.90;;;;;;;17.96;68.72;101162.13;4948999;28;20102;-65
2022/07/19 01:13:23;;;;;;;3.67;2.08;;;;;;;17.99;68.90;101173.31;4958018;28;20018;-67
2022/07/19 01:15:49;;;;;;;2.00;1.90;;;;;;;17.98;68.84;101173.50;4969516;28;20015;-67
2022/07/19 01:18:14;;;;;;;2.08;1.90;;;;;;;17.95;68.89;101171.16;4959330;28;21019;-69
2022/07/19 01:20:40;;;;;;;2.25;2.05;;;;;;;17.98;68.84;101176.19;4966504;28;20026;-67
2022/07/19 01:23:05;;;;;;;3.42;2.05;;;;;;;18.01;68.49;101171.28;4935132;28;20659;-66
2022/07/19 01:25:33;;;;;;;3.53;1.88;;;;;;;17.90;68.80;101168.16;4983375;28;20032;-65
2022/07/19 01:28:03;;;;;;;5.93;1.92;;;;;;;17.93;68.78;101162.47;4956563;28;20014;-69
2022/07/19 01:30:28;;;;;;;2.65;2.05;;;;;;;17.95;68.53;101166.66;4963754;28;20079;-66
2022/07/19 01:32:54;;;;;;;2.90;2.10;;;;;;;17.84;69.02;101159.78;4969482;28;20009;-67
2022/07/19 01:35:19;;;;;;;2.00;1.90;;;;;;;17.86;68.95;101160.44;4985857;28;20091;-64
2022/07/19 01:37:48;;;;;;;2.63;2.00;;;;;;;17.72;69.08;101166.53;4952731;28;20042;-66
2022/07/19 01:40:18;;;;;;;6.65;2.20;;;;;;;17.70;69.34;101160.53;4984503;28;20608;-69
2022/07/19 01:42:44;;;;;;;2.45;2.00;;;;;;;17.77;68.85;101158.00;4955928;28;20087;-67
2022/07/19 01:45:10;;;;;;;2.83;1.85;;;;;;;17.74;69.22;101155.66;4981400;28;20619;-69
2022/07/19 01:47:36;;;;;;;3.15;2.20;;;;;;;17.73;69.22;101170.88;4972513;28;20521;-65
2022/07/19 01:50:01;;;;;;;2.67;2.03;;;;;;;17.75;69.34;101157.31;4959203;28;20312;-67
2022/07/19 01:52:26;;;;;;;2.17;1.90;;;;;;;17.63;69.51;101159.56;4964594;28;20026;-67
2022/07/19 01:54:52;;;;;;;3.38;2.00;;;;;;;17.58;69.80;101154.69;4988636;28;20205;-67
2022/07/19 01:57:17;;;;;;;2.45;2.08;;;;;;;17.55;69.81;101156.91;4940569;28;20814;-67
2022/07/19 01:59:43;;;;;;;2.10;1.98;;;;;;;17.50;69.82;101155.59;5003003;28;20013;-67
2022/07/19 02:02:08;;;;;;;3.13;2.13;;;;;;;17.44;69.92;101155.44;4972001;28;20155;-65
2022/07/19 02:04:34;;;;;;;2.10;1.90;;;;;;;17.43;70.12;101151.06;4964729;28;20018;-67
2022/07/19 02:06:59;;;;;;;2.92;2.20;;;;;;;17.30;70.57;101162.31;4951552;28;20002;-66
2022/07/19 02:09:25;;;;;;;2.30;1.70;;;;;;;17.39;70.19;101147.94;4947618;28;20057;-66
2022/07/19 02:11:50;;;;;;;3.78;2.10;;;;;;;17.42;70.39;101155.59;4968005;28;20350;-67
2022/07/19 02:14:16;;;;;;;2.05;1.95;;;;;;;17.40;70.20;101152.28;4974403;28;20128;-66
2022/07/19 02:16:42;;;;;;;4.57;1.83;;;;;;;17.42;70.09;101152.09;4984208;28;20849;-67
2022/07/19 02:19:07;;;;;;;2.05;1.90;;;;;;;17.42;69.83;101142.22;4966070;28;20037;-65
2022/07/19 02:21:33;;;;;;;2.75;2.30;;;;;;;17.30;70.04;101132.91;4965621;28;20567;-65
2022/07/19 02:23:59;;;;;;;5.45;2.20;;;;;;;17.27;70.08;101133.25;4949202;28;20027;-66
2022/07/19 02:26:24;;;;;;;2.42;2.05;;;;;;;17.28;70.28;101132.25;4947888;28;20025;-66
2022/07/19 02:28:53;;;;;;;3.33;2.05;;;;;;;17.23;70.46;101130.09;4968836;28;20128;-66
2022/07/19 02:31:18;;;;;;;2.40;1.85;;;;;;;17.16;70.73;101131.75;4951421;28;20026;-65
2022/07/19 02:33:44;;;;;;;1.95;1.85;;;;;;;17.16;70.57;101129.94;4965924;28;20454;-66
2022/07/19 02:36:09;;;;;;;1.90;1.80;;;;;;;17.16;70.46;101129.94;4954619;28;20033;-66
2022/07/19 02:38:35;;;;;;;2.45;2.20;;;;;;;17.00;71.06;101121.94;4968065;28;20297;-67
2022/07/19 02:41:04;;;;;;;2.47;2.20;;;;;;;17.08;70.99;101132.63;4970237;28;20029;-67
2022/07/19 02:43:29;;;;;;;2.20;2.10;;;;;;;17.13;70.87;101124.94;4960567;28;20081;-67
2022/07/19 02:45:55;;;;;;;2.35;2.15;;;;;;;17.15;70.59;101130.94;4965277;28;20291;-67
2022/07/19 02:48:20;;;;;;;1.90;1.80;;;;;;;17.07;70.90;101136.28;4970623;28;20025;-67
2022/07/19 02:50:46;;;;;;;2.55;2.20;;;;;;;17.08;70.67;101139.81;4982382;28;20486;-66
2022/07/19 02:53:11;;;;;;;1.92;1.80;;;;;;;17.11;70.72;101140.28;4948180;28;20572;-66
2022/07/19 02:55:39;;;;;;;2.05;1.95;;;;;;;16.97;71.15;101139.16;4947823;28;20486;-66
2022/07/19 02:58:04;;;;;;;2.17;1.98;;;;;;;16.99;70.90;101138.97;4974072;28;20793;-65
2022/07/19 03:00:30;;;;;;;2.30;2.20;;;;;;;16.89;71.10;101138.31;4967173;28;20037;-65
2022/07/19 03:03:43;;;;;;;1.98;1.88;;;;;;;16.91;70.86;101128.31;4963672;28;20487;-66
2022/07/19 03:05:43;;;;;;;2.30;2.13;;;;;;;16.81;71.28;101134.63;4973276;28;20781;-67
2022/07/19 03:08:08;;;;;;;3.05;1.92;;;;;;;16.81;71.20;101141.81;4967922;28;20010;-66
2022/07/19 03:10:34;;;;;;;2.53;2.00;;;;;;;16.78;71.22;101145.66;4986008;28;19998;-67
2022/07/19 03:12:59;;;;;;;1.80;1.70;;;;;;;16.82;71.19;101148.81;4990124;28;20026;-66
2022/07/19 03:15:25;;;;;;;2.53;2.33;;;;;;;16.80;71.17;101150.84;4967011;28;20116;-67
2022/07/19 03:17:50;;;;;;;6.30;2.13;;;;;;;16.79;71.18;101150.00;4984820;28;20044;-66
2022/07/19 03:20:16;;;;;;;3.65;1.92;;;;;;;16.74;71.04;101141.66;4950028;28;20853;-66
2022/07/19 03:22:41;;;;;;;3.55;2.17;;;;;;;16.69;71.33;101149.31;4988618;28;20017;-70
2022/07/19 03:25:07;;;;;;;2.13;1.92;;;;;;;16.68;71.49;101150.31;4965801;28;20793;-68
2022/07/19 03:27:33;;;;;;;2.00;1.90;;;;;;;16.65;71.33;101148.00;4986097;28;20040;-67
2022/07/19 03:29:59;;;;;;;2.55;1.88;;;;;;;16.59;71.72;101143.31;4987599;28;20344;-66
2022/07/19 03:32:24;;;;;;;2.05;1.95;;;;;;;16.53;71.71;101147.50;4950312;28;20501;-67
2022/07/19 03:34:49;;;;;;;3.08;2.00;;;;;;;16.48;72.02;101148.00;4966501;28;20424;-66
2022/07/19 03:37:15;;;;;;;3.08;2.00;;;;;;;16.47;72.42;101150.84;4992553;28;20564;-66
2022/07/19 03:39:40;;;;;;;2.45;1.95;;;;;;;16.54;71.96;101145.66;5004389;28;20045;-65
2022/07/19 03:42:06;;;;;;;2.67;1.83;;;;;;;16.50;72.37;101145.16;4989479;28;20010;-68
2022/07/19 03:44:31;;;;;;;2.00;1.90;;;;;;;16.45;72.32;101144.81;4968758;28;20095;-68
2022/07/19 03:46:56;;;;;;;3.00;1.90;;;;;;;16.44;72.47;101152.00;4964328;28;20522;-67
2022/07/19 03:49:22;;;;;;;2.33;2.17;;;;;;;16.43;72.58;101150.31;4945447;28;20029;-67
2022/07/19 03:51:48;;;;;;;3.55;2.00;;;;;;;16.43;72.74;101149.50;4966914;28;20018;-66
2022/07/19 03:54:13;;;;;;;2.42;2.00;;;;;;;16.44;72.61;101140.47;4989290;28;20014;-67
2022/07/19 03:56:39;;;;;;;2.38;2.20;;;;;;;16.41;72.53;101141.66;4980184;28;20022;-66
2022/07/19 03:59:04;;;;;;;2.45;2.25;;;;;;;16.44;72.51;101137.78;4969373;28;20970;-66
2022/07/19 04:01:30;;;;;;;2.83;1.92;;;;;;;16.35;72.60;101142.28;4981664;28;20819;-67
2022/07/19 04:03:55;;;;;;;3.53;1.90;;;;;;;16.34;72.90;101143.28;4950289;28;20064;-66
2022/07/19 04:06:21;;;;;;;3.55;1.80;;;;;;;16.36;72.65;101141.31;4986657;28;20030;-67
2022/07/19 04:08:46;;;;;;;3.22;2.10;;;;;;;16.45;72.21;101134.94;4981356;28;20172;-68
2022/07/19 04:11:12;;;;;;;2.20;2.00;;;;;;;16.52;72.09;101142.31;4950732;28;20014;-67
2022/07/19 04:13:37;;;;;;;1.98;1.80;;;;;;;16.53;72.31;101144.81;4958322;28;20843;-65
2022/07/19 04:16:04;;;;;;;2.17;1.98;;;;;;;16.53;72.16;101142.16;4973721;28;20063;-67
2022/07/19 04:18:29;;;;;;;3.15;2.20;;;;;;;16.45;72.06;101136.81;4931465;28;20034;-66
2022/07/19 04:20:54;;;;;;;2.30;2.03;;;;;;;16.50;72.12;101139.81;4983870;28;20328;-66
2022/07/19 04:23:20;;;;;;;2.20;2.10;;;;;;;16.53;72.07;101144.81;4956999;28;20006;-68
2022/07/19 04:25:46;;;;;;;6.03;2.15;;;;;;;16.53;72.40;101152.00;4970496;28;20365;-66
2022/07/19 04:28:11;;;;;;;10.60;2.45;;;;;;;16.53;72.12;101144.00;4983829;28;20085;-67
2022/07/19 04:30:36;;;;;;;30.67;3.42;;;;;;;16.56;72.14;101155.16;4980938;28;20018;-67
2022/07/19 04:33:02;;;;;;;15.10;2.70;;;;;;;16.59;72.05;101151.34;4936684;28;20201;-67
2022/07/19 04:35:28;;;;;;;21.92;2.90;;;;;;;16.66;71.61;101155.00;4976506;28;20223;-66
2022/07/19 04:37:53;;;;;;;11.30;2.00;;;;;;;16.71;71.57;101151.81;4953293;28;20066;-67
2022/07/19 04:40:18;;;;;;;4.93;2.28;;;;;;;16.63;71.77;101150.00;4982095;28;20033;-67
2022/07/19 04:42:44;;;;;;;3.47;2.35;;;;;;;16.64;71.81;101154.34;4984619;28;20974;-68
2022/07/19 04:45:10;;;;;;;2.42;2.08;;;;;;;16.74;71.35;101157.69;4966561;28;20518;-67
2022/07/19 04:47:35;;;;;;;6.43;2.10;;;;;;;16.79;71.28;101154.50;4981268;28;20021;-67
2022/07/19 04:50:00;;;;;;;2.15;2.05;;;;;;;16.79;71.38;101152.69;4975851;28;20021;-68
2022/07/19 04:52:26;;;;;;;1.98;1.88;;;;;;;16.88;71.33;101149.97;4971016;28;21006;-66
2022/07/19 04:54:51;;;;;;;1.95;1.85;;;;;;;16.80;71.75;101157.00;4970441;28;20030;-66
2022/07/19 04:57:17;;;;;;;2.95;2.05;;;;;;;16.86;71.75;101152.00;4991136;28;20026;-66
2022/07/19 04:59:42;;;;;;;2.88;1.90;;;;;;;16.89;71.76;101143.66;4998302;28;20018;-66
2022/07/19 05:02:07;;;;;;;1.98;1.83;;;;;;;17.05;71.25;101145.47;5003938;28;20014;-67
2022/07/19 05:04:33;;;;;;;6.75;2.05;;;;;;;17.10;71.33;101135.94;4974055;28;21053;-67
2022/07/19 05:06:58;;;;;;;2.10;1.90;;;;;;;17.19;70.95;101138.59;4972701;28;20785;-67
2022/07/19 05:09:24;;;;;;;3.40;2.10;;;;;;;17.25;70.92;101136.09;4972414;28;20068;-66
2022/07/19 05:11:50;;;;;;;2.03;1.92;;;;;;;17.27;71.04;101130.56;4993886;28;20025;-67
2022/07/19 05:14:16;;;;;;;4.53;1.83;;;;;;;17.29;71.19;101133.91;4971565;28;20252;-67
2022/07/19 05:16:42;;;;;;;2.65;1.98;;;;;;;17.40;71.12;101135.38;4952995;28;20475;-67
2022/07/19 05:19:07;;;;;;;2.40;2.15;;;;;;;17.49;70.86;101137.03;4972530;28;20591;-67
2022/07/19 05:21:33;;;;;;;2.17;2.05;;;;;;;17.56;70.58;101134.50;4987469;28;20174;-67
2022/07/19 05:23:58;;;;;;;2.03;1.90;;;;;;;17.69;70.52;101134.78;4974846;28;20523;-67
2022/07/19 05:26:24;;;;;;;3.03;1.83;;;;;;;17.81;70.27;101136.06;4975231;28;20045;-67
2022/07/19 05:28:49;;;;;;;14.57;3.08;;;;;;;17.95;70.06;101133.66;4971299;28;20450;-66
2022/07/19 05:31:15;;;;;;;7.68;2.50;;;;;;;17.95;69.95;101133.66;4976116;28;20406;-68
2022/07/19 05:33:41;;;;;;;6.70;2.55;;;;;;;17.97;70.07;101137.00;4972699;28;20029;-68
2022/07/19 05:36:08;;;;;;;11.85;2.65;;;;;;;18.06;70.20;101135.94;4988331;28;20096;-67
2022/07/19 05:38:34;;;;;;;8.40;2.40;;;;;;;18.14;70.13;101132.41;4992252;28;21053;-67
2022/07/19 05:41:00;;;;;;;8.27;2.60;;;;;;;18.26;70.42;101138.16;4991590;28;20048;-66
2022/07/19 05:43:25;;;;;;;6.65;2.40;;;;;;;18.32;70.21;101135.63;4991100;28;20775;-66
2022/07/19 05:45:50;;;;;;;4.75;2.50;;;;;;;18.46;70.10;101136.69;5001227;28;20789;-65
2022/07/19 05:48:16;;;;;;;10.52;2.03;;;;;;;18.57;69.77;101134.59;4974244;28;20030;-67
2022/07/19 05:50:41;;;;;;;15.05;2.45;;;;;;;18.67;69.48;101132.47;4954522;28;20002;-65
2022/07/19 05:53:07;;;;;;;23.38;3.30;;;;;;;18.86;69.48;101144.56;4971413;28;20948;-65
2022/07/19 05:55:32;;;;;;;13.63;2.47;;;;;;;19.00;69.14;101142.97;4989169;28;20931;-67
2022/07/19 05:57:58;;;;;;;11.68;2.88;;;;;;;19.13;68.52;101143.16;4976755;28;20041;-65
2022/07/19 06:00:23;;;;;;;3.83;2.50;;;;;;;19.26;68.17;101142.50;4991982;28;20018;-64
2022/07/19 06:02:48;;;;;;;3.53;2.08;;;;;;;19.42;67.80;101141.50;4990583;28;20029;-66
2022/07/19 06:05:14;;;;;;;6.05;2.03;;;;;;;19.57;68.19;101149.53;4987589;28;20053;-66
2022/07/19 06:07:39;;;;;;;5.15;2.38;;;;;;;19.71;68.02;101154.09;4988067;28;20026;-66
2022/07/19 06:10:05;;;;;;;2.92;1.90;;;;;;;19.85;67.50;101147.03;4981729;28;20014;-67
2022/07/19 06:12:31;;;;;;;4.63;2.08;;;;;;;19.97;67.76;101146.56;4965949;28;20017;-67
2022/07/19 06:14:56;;;;;;;2.70;2.10;;;;;;;20.11;67.52;101145.69;4983109;28;20039;-66
2022/07/19 06:17:22;;;;;;;4.13;2.00;;;;;;;20.24;66.99;101145.81;4978576;28;20023;-65
2022/07/19 06:19:47;;;;;;;6.25;2.53;;;;;;;20.37;66.82;101146.97;4952896;28;20068;-66
2022/07/19 06:22:13;;;;;;;7.38;1.98;;;;;;;20.50;66.67;101144.41;4972953;28;20072;-66
2022/07/19 06:24:39;;;;;;;2.08;1.88;;;;;;;20.66;66.23;101147.84;4973403;28;20801;-66
2022/07/19 06:27:04;;;;;;;3.05;1.80;;;;;;;20.79;65.47;101149.88;4972944;28;20227;-67
2022/07/19 06:29:29;;;;;;;2.72;1.95;;;;;;;20.98;64.36;101149.16;4997456;28;20835;-66
2022/07/19 06:31:55;;;;;;;3.90;2.00;;;;;;;21.16;63.82;101145.16;4987981;28;20338;-67
2022/07/19 06:34:21;;;;;;;2.42;2.05;;;;;;;21.31;62.90;101148.56;4956666;28;20237;-67
2022/07/19 06:36:46;;;;;;;1.92;1.73;;;;;;;21.48;62.75;101149.09;4970710;28;20017;-66
2022/07/19 06:39:12;;;;;;;3.83;2.00;;;;;;;21.61;62.45;101145.66;4989828;28;20087;-65
2022/07/19 06:41:37;;;;;;;4.10;1.90;;;;;;;21.77;61.80;101153.41;4986076;28;20063;-65
2022/07/19 06:44:03;;;;;;;5.18;2.28;;;;;;;21.91;60.36;101146.19;4966522;28;20014;-66
2022/07/19 06:46:28;;;;;;;4.50;2.28;;;;;;;22.09;60.13;101155.56;4962233;28;20149;-63
2022/07/19 06:48:53;;;;;;;2.95;2.10;;;;;;;22.28;57.94;101153.97;4969417;28;20088;-66
2022/07/19 06:51:19;;;;;;;3.13;2.10;;;;;;;22.48;58.26;101145.94;4976889;28;20415;-67
2022/07/19 06:53:44;;;;;;;2.13;2.00;;;;;;;22.64;57.00;101145.50;4962107;28;20643;-65
2022/07/19 06:56:10;;;;;;;3.08;1.90;;;;;;;22.80;56.71;101152.38;4949398;28;20241;-67
2022/07/19 06:58:35;;;;;;;8.82;2.20;;;;;;;22.94;55.02;101161.28;4947870;28;20099;-66
2022/07/19 07:01:02;;;;;;;4.95;2.20;;;;;;;23.12;53.83;101160.66;4954817;28;20045;-66
2022/07/19 07:03:28;;;;;;;4.78;1.98;;;;;;;23.29;55.87;101150.25;4965865;28;20010;-67
2022/07/19 07:05:54;;;;;;;2.72;1.67;;;;;;;23.46;52.80;101157.88;4975346;28;20258;-66
2022/07/19 07:08:19;;;;;;;3.67;1.70;;;;;;;23.59;52.40;101155.16;4978456;28;20116;-68
2022/07/19 07:10:45;;;;;;;6.60;1.92;;;;;;;23.78;50.42;101155.28;4955054;28;20842;-66
2022/07/19 07:13:11;;;;;;;4.10;2.08;;;;;;;23.96;49.86;101157.31;4975716;28;20036;-65
2022/07/19 07:15:38;;;;;;;4.85;1.92;;;;;;;24.13;51.31;101157.66;5001439;28;20143;-69
2022/07/19 07:18:03;;;;;;;5.82;1.70;;;;;;;24.25;50.33;101155.88;4958402;28;20888;-68
2022/07/19 07:20:34;;;;;;;4.03;1.90;;;;;;;24.38;48.74;101159.56;4995945;28;20006;-66
2022/07/19 07:23:00;;;;;;;3.67;1.75;;;;;;;24.49;47.92;101151.59;4957454;28;20068;-67
2022/07/19 07:25:26;;;;;;;5.63;2.20;;;;;;;24.62;47.48;101152.53;4973060;28;20521;-68
2022/07/19 07:27:51;;;;;;;6.38;2.00;;;;;;;24.83;46.58;101159.44;4991907;28;20906;-67
2022/07/19 07:30:16;;;;;;;7.30;1.90;;;;;;;24.95;47.06;101149.56;4964401;28;20438;-67
2022/07/19 07:32:42;;;;;;;4.22;1.80;;;;;;;25.15;47.60;101143.13;4969272;28;20191;-68
2022/07/19 07:35:07;;;;;;;5.03;2.25;;;;;;;25.34;45.84;101146.69;4972021;28;20014;-67
2022/07/19 07:37:33;;;;;;;3.47;2.38;;;;;;;25.49;43.90;101139.00;4987325;28;20009;-66
2022/07/19 07:39:59;;;;;;;2.78;2.50;;;;;;;25.61;43.19;101140.94;4986901;28;20007;-66
2022/07/19 07:42:27;;;;;;;5.10;2.92;;;;;;;25.79;41.15;101137.38;4984601;28;20017;-65
2022/07/19 07:44:52;;;;;;;1.80;1.55;;;;;;;25.98;39.61;101136.28;5005605;28;20014;-68
2022/07/19 07:47:18;;;;;;;2.00;1.70;;;;;;;26.12;40.36;101136.97;4984304;28;20349;-67
2022/07/19 07:49:43;;;;;;;2.15;1.83;;;;;;;26.19;38.93;101131.44;4991119;28;20467;-67
2022/07/19 07:52:09;;;;;;;3.13;1.60;;;;;;;26.32;39.89;101133.94;4984309;28;20029;-67
2022/07/19 07:54:35;;;;;;;5.50;1.70;;;;;;;26.50;38.39;101132.22;4946719;28;20006;-68
2022/07/19 07:57:00;;;;;;;2.70;1.70;;;;;;;26.58;38.28;101134.56;4990551;28;20344;-71
2022/07/19 07:59:26;;;;;;;3.75;1.90;;;;;;;26.78;37.13;101134.28;4971094;28;20962;-66
2022/07/19 08:01:51;;;;;;;1.95;1.80;;;;;;;26.91;36.77;101127.78;4957124;28;20083;-67
2022/07/19 08:04:16;;;;;;;5.47;2.10;;;;;;;27.00;36.83;101126.34;4973623;28;20026;-67
2022/07/19 08:06:42;;;;;;;4.28;2.17;;;;;;;27.17;37.15;101131.88;4956248;28;20099;-66
2022/07/19 08:09:07;;;;;;;3.15;1.95;;;;;;;27.27;35.20;101136.72;5000104;28;20009;-68
2022/07/19 08:11:33;;;;;;;3.55;1.80;;;;;;;27.31;35.92;101132.44;4986003;28;20014;-69
2022/07/19 08:13:58;;;;;;;4.85;1.90;;;;;;;27.53;34.66;101129.97;4956757;28;20018;-69
2022/07/19 08:16:24;;;;;;;4.32;1.92;;;;;;;27.71;33.33;101128.13;4972449;28;20076;-68
2022/07/19 08:18:50;;;;;;;5.72;1.80;;;;;;;27.80;32.85;101123.13;4959386;28;20038;-68
2022/07/19 08:21:15;;;;;;;9.27;6.20;;;;;;;27.86;33.41;101124.88;4975814;28;20240;-67
2022/07/19 08:23:41;;;;;;;2.40;2.20;;;;;;;27.94;32.92;101119.03;4959424;28;20036;-67
2022/07/19 08:26:08;;;;;;;3.28;1.70;;;;;;;28.07;30.99;101132.34;4945516;28;20634;-68
2022/07/19 08:28:34;;;;;;;5.93;1.70;;;;;;;28.28;31.89;101110.97;5014713;28;20040;-68
2022/07/19 08:30:59;;;;;;;9.00;5.82;;;;;;;28.39;32.79;101112.78;4992877;28;20121;-68
2022/07/19 08:33:25;;;;;;;6.70;3.42;;;;;;;28.54;33.68;101114.94;4996867;28;20028;-68
2022/07/19 08:35:51;;;;;;;4.75;2.67;;;;;;;28.66;32.45;101114.06;4979062;28;20196;-68
2022/07/19 08:38:19;;;;;;;4.05;1.70;;;;;;;28.84;30.87;101112.94;4955631;28;20056;-69
2022/07/19 08:40:44;;;;;;;4.03;3.63;;;;;;;28.91;31.14;101116.31;4962023;28;20105;-67
2022/07/19 08:43:10;;;;;;;3.88;2.63;;;;;;;29.06;31.47;101113.81;4967452;28;20295;-67
2022/07/19 08:45:41;;;;;;;2.33;1.60;;;;;;;29.09;30.59;101109.72;4986855;28;20623;-68
2022/07/19 08:48:07;;;;;;;5.45;1.85;;;;;;;29.22;29.89;101116.72;4979415;28;20557;-65
2022/07/19 08:50:33;;;;;;;2.28;1.55;;;;;;;29.32;31.17;101111.44;4958521;28;20290;-68
2022/07/19 08:52:59;;;;;;;2.90;1.60;;;;;;;29.41;31.41;101099.00;4960695;28;20785;-67
2022/07/19 08:55:25;;;;;;;2.60;1.92;;;;;;;29.63;30.67;101103.63;4950686;28;20115;-68
2022/07/19 08:58:02;;;;;;;1.70;1.60;;;;;;;29.79;30.10;101102.69;4962807;28;20030;-67
2022/07/19 09:00:29;;;;;;;2.42;1.52;;;;;;;29.99;31.51;101098.53;4966260;28;20011;-66
2022/07/19 09:03:03;;;;;;;1.67;1.52;;;;;;;30.10;30.01;101094.81;4967076;28;20229;-68
2022/07/19 09:05:29;;;;;;;1.63;1.42;;;;;;;30.31;28.27;101095.00;4941268;28;20224;-67
2022/07/19 09:08:04;;;;;;;1.98;1.52;;;;;;;30.34;27.84;101094.47;4985351;28;20453;-67
2022/07/19 09:10:34;;;;;;;4.55;3.28;;;;;;;30.47;27.84;101101.44;4984255;28;20139;-67
2022/07/19 09:13:05;;;;;;;2.85;1.83;;;;;;;30.73;30.25;101096.97;4979098;28;20006;-66
2022/07/19 09:15:51;;;;;;;2.90;2.00;;;;;;;30.93;27.69;101096.25;4992389;28;20079;-66
2022/07/19 09:18:30;;;;;;;2.55;1.67;;;;;;;31.13;27.52;101090.09;5009184;28;20049;-66
2022/07/19 09:20:57;;;;;;;5.40;1.63;;;;;;;31.30;27.75;101089.88;4978903;28;20022;-68
2022/07/19 09:23:24;;;;;;;4.30;1.88;;;;;;;31.48;26.30;101091.31;4994647;28;20025;-66
2022/07/19 09:25:53;;;;;;;2.20;1.60;;;;;;;31.69;27.08;101080.47;4971540;28;20406;-65
2022/07/19 09:28:21;;;;;;;3.38;1.92;;;;;;;31.92;26.51;101081.03;4959273;28;20068;-67
2022/07/19 09:30:48;;;;;;;5.90;1.70;;;;;;;32.13;25.61;101079.97;4968153;28;20021;-68
2022/07/19 09:33:27;;;;;;;1.60;1.50;;;;;;;32.18;26.76;101079.13;4998307;28;20025;-66
2022/07/19 09:35:57;;;;;;;2.50;1.50;;;;;;;32.45;26.73;101080.75;4987506;28;20036;-66
2022/07/19 09:38:30;;;;;;;3.15;1.40;;;;;;;32.75;26.63;101090.88;4952557;28;20802;-66
2022/07/19 09:41:23;;;;;;;1.67;1.20;;;;;;;32.90;24.67;101086.44;4984806;28;20790;-67
2022/07/19 09:43:58;;;;;;;2.60;1.40;;;;;;;33.01;24.90;101080.66;4974785;28;20116;-67
2022/07/19 09:46:32;;;;;;;1.90;1.48;;;;;;;33.24;24.10;101074.81;4969897;28;20053;-68
2022/07/19 09:49:16;;;;;;;4.03;1.67;;;;;;;33.43;23.99;101078.56;4988980;28;20022;-66
2022/07/19 09:51:43;;;;;;;1.70;1.40;;;;;;;33.63;24.96;101069.38;4960988;28;20789;-67
2022/07/19 09:54:10;;;;;;;1.35;1.25;;;;;;;33.91;24.80;101063.47;4954386;28;20018;-67
2022/07/19 09:56:40;;;;;;;2.50;1.92;;;;;;;34.09;24.14;101067.44;4964151;28;20025;-64
2022/07/19 09:59:05;;;;;;;3.50;1.73;;;;;;;34.30;23.55;101063.44;4942412;28;20320;-66
2022/07/19 10:01:31;;;;;;;1.88;1.40;;;;;;;34.34;22.53;101060.94;4989121;28;20866;-68
2022/07/19 10:04:01;;;;;;;2.90;1.40;;;;;;;34.35;21.13;101066.13;4977239;28;20407;-66
2022/07/19 10:06:26;;;;;;;5.97;1.50;;;;;;;34.70;22.58;101060.53;4970675;28;20022;-67
2022/07/19 10:08:53;;;;;;;1.50;1.50;;;;;;;34.98;22.65;101052.56;4994246;28;20020;-67
2022/07/19 10:11:18;;;;;;;4.82;1.58;;;;;;;34.92;19.97;101055.34;4991048;28;20025;-66
2022/07/19 10:13:45;;;;;;;1.67;1.50;;;;;;;35.06;21.67;101052.72;4968839;28;20025;-67
2022/07/19 10:16:12;;;;;;;2.55;1.75;;;;;;;35.46;20.54;101049.72;4953179;28;20117;-67
2022/07/19 10:19:00;;;;;;;3.58;1.50;;;;;;;35.72;20.61;101052.06;4970123;28;20896;-66
2022/07/19 10:21:25;;;;;;;2.53;1.38;;;;;;;35.90;21.36;101042.16;4990946;28;20021;-66
2022/07/19 10:23:51;;;;;;;1.75;1.50;;;;;;;36.05;19.51;101038.34;4988721;28;20025;-67
2022/07/19 10:26:36;;;;;;;3.30;2.15;;;;;;;36.31;20.67;101041.47;4960174;28;20830;-67
2022/07/19 10:29:17;;;;;;;1.55;1.45;;;;;;;36.54;20.92;101042.41;4950444;28;20023;-67
2022/07/19 10:31:43;;;;;;;3.50;1.50;;;;;;;36.92;19.63;101036.72;4967866;28;20438;-64
2022/07/19 10:34:20;;;;;;;2.28;1.45;;;;;;;37.00;18.82;101039.88;4933634;28;20121;-66
2022/07/19 10:36:49;;;;;;;1.83;1.73;;;;;;;36.85;19.50;101039.06;4941711;28;20045;-68
2022/07/19 10:39:18;;;;;;;3.15;1.70;;;;;;;37.40;19.08;101032.66;4952771;28;20712;-65
2022/07/19 10:42:16;;;;;;;2.60;1.65;;;;;;;37.78;18.96;101031.47;4986828;28;20078;-67
2022/07/19 10:44:59;;;;;;;6.35;1.65;;;;;;;37.96;18.80;101026.88;4957711;28;20034;-67
2022/07/19 10:47:37;;;;;;;3.92;1.50;;;;;;;37.92;19.89;101029.47;4968763;28;20129;-67
2022/07/19 10:50:18;;;;;;;2.25;1.73;;;;;;;37.47;18.47;101026.69;4949243;28;20317;-67
2022/07/19 10:52:43;;;;;;;1.98;1.50;;;;;;;38.09;19.18;101025.16;4947336;28;20178;-66
2022/07/19 10:55:18;;;;;;;1.52;1.40;;;;;;;38.55;18.25;101032.22;4958104;28;20592;-67
2022/07/19 10:57:48;;;;;;;3.97;1.83;;;;;;;38.36;18.13;101028.88;4962401;28;20011;-67
2022/07/19 11:00:20;;;;;;;4.40;1.70;;;;;;;38.43;17.85;101018.22;4949402;28;20023;-67
2022/07/19 11:02:46;;;;;;;3.23;1.30;;;;;;;38.79;15.93;101020.75;4955257;28;20022;-67
2022/07/19 11:05:27;;;;;;;1.50;1.40;;;;;;;38.97;17.25;101013.31;4932008;28;20540;-66
2022/07/19 11:07:54;;;;;;;2.10;1.40;;;;;;;39.12;17.58;101017.56;4968960;28;20438;-67
2022/07/19 11:10:27;;;;;;;2.00;1.50;;;;;;;39.56;17.31;101009.28;4938382;28;20029;-67
2022/07/19 11:12:52;;;;;;;;;;;;;;;39.52;16.98;101008.31;4936661;28;20788;-67
2022/07/19 11:15:18;;;;;;;3.05;1.52;;;;;;;39.57;17.19;101005.38;4944872;28;20235;-67
2022/07/19 11:18:02;;;;;;;1.65;1.42;;;;;;;39.31;17.01;101005.38;4936157;28;20418;-69
2022/07/19 11:20:29;;;;;;;1.30;1.20;;;;;;;39.64;16.41;100988.25;4934621;28;20010;-67
2022/07/19 11:22:56;;;;;;;2.63;1.35;;;;;;;39.58;17.14;100997.88;4951066;28;20090;-66